Time;durP1;ratioP1;P1;durP2;ratioP2;P2;SDS_P1;SDS_P2;PMS_P1;PMS_P2;Temp;Humidity;BMP_temperature;BMP_pressure;BME280_temperature;BME280_humidity;BME280_pressure;Samples;Min_cycle;Max_cycle;Signal;HPM_P1;HPM_P2
2021/06/26 00:00:09;;;;;;;8.15;5.85;;;30.90;45.60;;;;;;4386600;32;20633;-38
2021/06/26 00:02:36;;;;;;;12.60;6.28;;;30.90;45.90;;;;;;4388148;32;20085;-37
2021/06/26 00:05:04;;;;;;;12.40;7.35;;;30.90;46.10;;;;;;4374384;32;20092;-38
2021/06/26 00:07:30;;;;;;;11.98;7.55;;;30.80;45.80;;;;;;4388318;32;20062;-37
2021/06/26 00:09:56;;;;;;;9.93;6.93;;;30.80;46.50;;;;;;4387911;32;20522;-37
2021/06/26 00:12:23;;;;;;;14.38;7.18;;;30.80;46.80;;;;;;4355597;32;20162;-36
2021/06/26 00:14:50;;;;;;;10.25;7.45;;;30.80;46.70;;;;;;4343287;32;20088;-36
2021/06/26 00:17:17;;;;;;;10.38;7.22;;;30.80;46.90;;;;;;4355708;32;20533;-37
2021/06/26 00:19:43;;;;;;;7.55;6.65;;;30.80;47.20;;;;;;4343733;32;20181;-38
2021/06/26 00:22:10;;;;;;;10.77;6.37;;;30.80;47.40;;;;;;4343463;32;20218;-38
2021/06/26 00:24:36;;;;;;;11.20;7.40;;;30.70;47.80;;;;;;4355429;32;20578;-38
2021/06/26 00:27:03;;;;;;;8.23;7.20;;;30.60;48.00;;;;;;4355391;32;20155;-37
2021/06/26 00:29:29;;;;;;;12.68;7.70;;;30.50;48.40;;;;;;4343199;32;20081;-37
2021/06/26 00:31:56;;;;;;;8.45;7.00;;;30.40;48.90;;;;;;4355266;32;20558;-37
2021/06/26 00:34:22;;;;;;;11.07;6.85;;;30.40;49.20;;;;;;4355655;32;20089;-38
2021/06/26 00:36:48;;;;;;;12.02;6.75;;;30.30;49.30;;;;;;4355787;32;20066;-35
2021/06/26 00:39:15;;;;;;;15.77;7.20;;;30.30;49.50;;;;;;4355533;32;20077;-37
2021/06/26 00:41:41;;;;;;;16.98;8.43;;;30.30;49.60;;;;;;4355326;32;20154;-38
2021/06/26 00:44:09;;;;;;;7.70;6.87;;;30.30;49.80;;;;;;4381625;32;20062;-37
2021/06/26 00:46:35;;;;;;;13.98;7.22;;;30.30;50.00;;;;;;4343127;32;20154;-37
2021/06/26 00:49:03;;;;;;;10.10;7.28;;;30.20;50.10;;;;;;4355424;32;20082;-37
2021/06/26 00:51:29;;;;;;;13.73;7.18;;;30.20;50.20;;;;;;4355478;32;20085;-36
2021/06/26 00:53:56;;;;;;;14.20;7.37;;;30.20;50.30;;;;;;4343174;32;20596;-36
2021/06/26 00:56:24;;;;;;;12.02;7.07;;;30.20;50.20;;;;;;4342899;32;20580;-36
2021/06/26 00:58:53;;;;;;;18.33;7.57;;;30.30;50.10;;;;;;4355541;32;20068;-36
2021/06/26 01:01:19;;;;;;;14.20;6.97;;;30.40;49.90;;;;;;4355210;32;20599;-36
2021/06/26 01:03:46;;;;;;;10.88;7.65;;;30.50;49.50;;;;;;4343568;32;20074;-37
2021/06/26 01:06:14;;;;;;;9.10;6.95;;;30.70;49.30;;;;;;4339922;33;20074;-37
2021/06/26 01:08:41;;;;;;;16.77;6.57;;;30.80;48.90;;;;;;4327831;33;20609;-37
2021/06/26 01:11:07;;;;;;;11.68;6.78;;;30.90;48.70;;;;;;4328083;33;20063;-37
2021/06/26 01:13:34;;;;;;;9.07;6.87;;;31.00;48.40;;;;;;4328309;33;20165;-37
2021/06/26 01:16:01;;;;;;;11.18;7.00;;;31.10;48.20;;;;;;4328640;33;20156;-37
2021/06/26 01:18:27;;;;;;;15.93;7.45;;;31.30;48.00;;;;;;4365827;32;20078;-38
2021/06/26 01:20:54;;;;;;;19.62;7.50;;;31.40;47.60;;;;;;4357825;32;20065;-37
2021/06/26 01:23:20;;;;;;;11.38;6.50;;;31.60;47.20;;;;;;4370297;32;20652;-38
2021/06/26 01:25:47;;;;;;;10.35;6.75;;;31.70;46.90;;;;;;4358637;32;20098;-38
2021/06/26 01:28:14;;;;;;;12.27;7.35;;;31.80;46.60;;;;;;4358393;32;20172;-37
2021/06/26 01:30:40;;;;;;;16.20;6.43;;;32.00;46.30;;;;;;4370930;32;20058;-37
2021/06/26 01:33:06;;;;;;;21.70;7.53;;;32.10;46.10;;;;;;4370440;32;20485;-37
2021/06/26 01:35:33;;;;;;;16.80;7.95;;;32.10;45.90;;;;;;4328033;33;20090;-37
2021/06/26 01:38:02;;;;;;;13.80;8.30;;;32.20;45.90;;;;;;4364769;32;20197;-37
2021/06/26 01:40:29;;;;;;;17.15;7.82;;;32.30;45.80;;;;;;4369740;32;20589;-36
2021/06/26 01:42:56;;;;;;;26.60;7.25;;;32.40;45.80;;;;;;4358890;32;20062;-36
2021/06/26 01:45:23;;;;;;;18.60;7.90;;;32.40;45.70;;;;;;4373111;32;20158;-35
2021/06/26 01:47:52;;;;;;;10.90;7.07;;;32.40;45.70;;;;;;4365787;32;20059;-38
2021/06/26 01:50:19;;;;;;;19.52;7.25;;;32.50;45.80;;;;;;4375320;32;20081;-38
2021/06/26 01:52:46;;;;;;;18.12;7.32;;;32.60;45.80;;;;;;4375279;32;20145;-37
2021/06/26 01:55:14;;;;;;;25.10;7.65;;;32.70;45.70;;;;;;4374816;32;20162;-38
2021/06/26 01:57:41;;;;;;;20.62;7.10;;;33.00;45.40;;;;;;4387945;32;20066;-36
2021/06/26 02:00:09;;;;;;;13.45;6.47;;;33.20;45.00;;;;;;4387325;32;20156;-38
2021/06/26 02:02:35;;;;;;;14.45;6.43;;;33.50;44.50;;;;;;4362593;32;20081;-37
2021/06/26 02:05:03;;;;;;;21.33;6.53;;;33.70;44.10;;;;;;4387311;32;20558;-37
2021/06/26 02:07:30;;;;;;;18.27;6.00;;;33.90;43.60;;;;;;4376748;32;20138;-37
2021/06/26 02:09:56;;;;;;;16.40;6.47;;;34.20;43.30;;;;;;4390140;32;20069;-38
2021/06/26 02:12:23;;;;;;;16.33;6.12;;;34.40;42.90;;;;;;4390993;32;20071;-38
2021/06/26 02:14:52;;;;;;;14.95;5.62;;;34.60;42.50;;;;;;4390731;32;20058;-38
2021/06/26 02:17:21;;;;;;;18.33;6.40;;;35.00;42.10;;;;;;4377643;32;20060;-38
2021/06/26 02:19:48;;;;;;;13.07;5.37;;;35.40;41.50;;;;;;4376333;32;20069;-37
2021/06/26 02:22:16;;;;;;;14.85;6.32;;;35.80;41.20;;;;;;4376282;32;20097;-37
2021/06/26 02:24:42;;;;;;;8.52;5.65;;;36.20;40.30;;;;;;4390035;32;20058;-37
2021/06/26 02:27:09;;;;;;;9.88;6.15;;;36.60;39.20;;;;;;4389909;32;20534;-37
2021/06/26 02:29:35;;;;;;;14.52;6.50;;;36.90;38.80;;;;;;4389711;32;20517;-38
2021/06/26 02:32:03;;;;;;;12.00;5.85;;;37.10;38.50;;;;;;4389706;32;20069;-37
2021/06/26 02:34:30;;;;;;;16.17;5.28;;;37.40;38.20;;;;;;4389970;32;20595;-37
2021/06/26 02:36:56;;;;;;;9.38;5.30;;;37.60;37.70;;;;;;4389111;32;20147;-37
2021/06/26 02:39:23;;;;;;;11.52;6.28;;;37.80;37.50;;;;;;4363238;32;20070;-37
2021/06/26 02:41:49;;;;;;;11.02;5.85;;;38.00;37.50;;;;;;4389825;32;20077;-38
2021/06/26 02:44:16;;;;;;;14.70;5.97;;;38.00;37.30;;;;;;4375487;32;20082;-37
2021/06/26 02:46:42;;;;;;;12.95;5.55;;;38.10;37.00;;;;;;4389419;32;20081;-36
2021/06/26 02:49:09;;;;;;;19.30;7.28;;;38.10;37.20;;;;;;4389201;32;20077;-36
2021/06/26 02:51:35;;;;;;;20.27;7.05;;;38.00;37.10;;;;;;4389384;32;20119;-37
2021/06/26 02:54:01;;;;;;;8.93;5.60;;;38.00;37.50;;;;;;4387294;32;20610;-36
2021/06/26 02:56:28;;;;;;;12.10;5.35;;;37.90;37.30;;;;;;4386465;32;20082;-37
2021/06/26 02:58:54;;;;;;;15.82;7.00;;;38.00;37.20;;;;;;4386893;32;20085;-37
2021/06/26 03:01:21;;;;;;;12.80;5.75;;;37.90;37.10;;;;;;4386648;32;20101;-37
2021/06/26 03:03:47;;;;;;;11.55;6.00;;;38.00;36.90;;;;;;4349425;32;20097;-37
2021/06/26 03:06:13;;;;;;;6.78;5.65;;;38.10;36.50;;;;;;4374025;32;20100;-37
2021/06/26 03:08:40;;;;;;;9.98;5.97;;;38.10;36.40;;;;;;4386540;32;20096;-37
2021/06/26 03:11:06;;;;;;;13.15;6.25;;;38.30;36.20;;;;;;4373984;32;20477;-37
2021/06/26 03:13:33;;;;;;;13.32;5.85;;;38.40;35.90;;;;;;4356072;32;20085;-37
2021/06/26 03:15:59;;;;;;;8.68;6.55;;;38.50;35.60;;;;;;4356667;32;20074;-37
2021/06/26 03:18:26;;;;;;;11.27;6.80;;;38.60;35.40;;;;;;4356335;32;20099;-37
2021/06/26 03:20:54;;;;;;;14.20;6.07;;;38.70;35.20;;;;;;4331824;32;20062;-37
2021/06/26 03:23:20;;;;;;;15.68;7.78;;;38.80;35.10;;;;;;4343830;32;20141;-37
2021/06/26 03:25:46;;;;;;;11.10;5.82;;;38.90;35.00;;;;;;4341321;33;20106;-38
2021/06/26 03:28:13;;;;;;;13.02;6.45;;;39.00;34.90;;;;;;4329070;33;20146;-37
2021/06/26 03:30:39;;;;;;;15.20;7.28;;;39.10;34.50;;;;;;4341060;33;20063;-37
2021/06/26 03:33:06;;;;;;;8.25;5.72;;;39.10;34.70;;;;;;4341415;33;20078;-38
2021/06/26 03:35:32;;;;;;;14.27;6.65;;;39.10;34.50;;;;;;4341116;33;20047;-37
2021/06/26 03:37:58;;;;;;;16.92;8.00;;;39.10;34.60;;;;;;4329219;33;20161;-37
2021/06/26 03:40:25;;;;;;;12.70;5.87;;;39.10;34.40;;;;;;4329022;33;20063;-37
2021/06/26 03:42:51;;;;;;;15.93;7.28;;;39.00;34.80;;;;;;4341109;33;20055;-37
2021/06/26 03:45:18;;;;;;;15.65;8.00;;;38.90;34.80;;;;;;4341435;33;20155;-38
2021/06/26 03:47:44;;;;;;;17.42;6.93;;;38.70;35.20;;;;;;4336075;33;20086;-37
2021/06/26 03:50:11;;;;;;;8.77;6.32;;;38.40;35.50;;;;;;4304615;33;20071;-37
2021/06/26 03:52:38;;;;;;;16.42;6.90;;;38.20;35.90;;;;;;4328889;33;20138;-37
2021/06/26 03:55:05;;;;;;;17.23;6.62;;;38.00;36.20;;;;;;4341117;33;20173;-37
2021/06/26 03:57:32;;;;;;;10.88;6.25;;;37.90;36.50;;;;;;4365162;32;20066;-38
2021/06/26 03:59:58;;;;;;;12.70;7.43;;;38.00;36.90;;;;;;4370801;32;20074;-38
2021/06/26 04:02:25;;;;;;;12.35;6.45;;;38.10;36.50;;;;;;4370913;32;20538;-38
2021/06/26 04:04:51;;;;;;;23.02;7.03;;;38.10;36.20;;;;;;4370161;32;20077;-38
2021/06/26 04:07:18;;;;;;;13.90;7.47;;;38.10;36.20;;;;;;4370947;32;20077;-38
2021/06/26 04:09:44;;;;;;;19.67;6.95;;;38.10;36.20;;;;;;4370439;32;20074;-36
2021/06/26 04:12:11;;;;;;;16.80;7.70;;;38.20;36.30;;;;;;4370654;32;20104;-39
2021/06/26 04:14:37;;;;;;;14.85;7.03;;;38.50;36.00;;;;;;4370651;32;20069;-37
2021/06/26 04:17:04;;;;;;;12.20;6.87;;;38.80;36.00;;;;;;4370460;32;20062;-38
2021/06/26 04:19:31;;;;;;;11.85;6.68;;;39.10;36.30;;;;;;4370993;32;20092;-37
2021/06/26 04:21:57;;;;;;;17.67;6.70;;;39.40;35.40;;;;;;4358590;32;20076;-37
2021/06/26 04:24:23;;;;;;;12.50;6.70;;;39.70;34.90;;;;;;4368401;32;20147;-38
2021/06/26 04:26:50;;;;;;;14.38;6.82;;;40.00;35.30;;;;;;4344253;32;20108;-38
2021/06/26 04:29:17;;;;;;;13.05;6.40;;;40.30;34.30;;;;;;4358158;32;20061;-37
2021/06/26 04:31:44;;;;;;;18.25;6.47;;;40.50;33.60;;;;;;4356363;32;20059;-38
2021/06/26 04:34:10;;;;;;;13.18;6.43;;;41.00;33.40;;;;;;4357674;32;20074;-38
2021/06/26 04:36:37;;;;;;;14.38;7.28;;;41.30;32.90;;;;;;4344631;32;20522;-38
2021/06/26 04:39:07;;;;;;;15.95;7.45;;;41.50;32.50;;;;;;4357958;32;20128;-37
2021/06/26 04:41:37;;;;;;;10.63;6.93;;;41.50;32.30;;;;;;4356624;32;20066;-38
2021/06/26 04:44:04;;;;;;;16.48;6.72;;;41.50;32.10;;;;;;4331704;32;20090;-39
2021/06/26 04:46:31;;;;;;;13.68;7.22;;;41.40;32.30;;;;;;4356630;32;20537;-38
2021/06/26 04:48:58;;;;;;;14.85;6.65;;;41.30;32.20;;;;;;4356477;32;20137;-38
2021/06/26 04:51:25;;;;;;;11.30;6.22;;;41.30;32.20;;;;;;4372603;32;20057;-38
2021/06/26 04:53:51;;;;;;;17.83;6.75;;;41.30;32.10;;;;;;4371448;32;20058;-39
2021/06/26 04:56:18;;;;;;;15.45;6.97;;;41.30;32.20;;;;;;4371450;32;20151;-37
2021/06/26 04:58:44;;;;;;;13.73;6.80;;;41.20;32.00;;;;;;4373045;32;20221;-37
2021/06/26 05:01:11;;;;;;;10.48;6.78;;;41.20;32.30;;;;;;4369869;32;20475;-37
2021/06/26 05:03:39;;;;;;;11.70;7.12;;;41.10;33.10;;;;;;4357723;32;20186;-39
2021/06/26 05:06:06;;;;;;;12.00;7.18;;;41.10;33.20;;;;;;4370136;32;20081;-38
2021/06/26 05:08:32;;;;;;;13.40;7.37;;;41.10;33.80;;;;;;4369932;32;20217;-37
2021/06/26 05:10:59;;;;;;;19.80;6.82;;;41.10;33.70;;;;;;4370048;32;20226;-38
2021/06/26 05:13:25;;;;;;;16.60;7.37;;;41.30;33.90;;;;;;4370097;32;20229;-38
2021/06/26 05:15:52;;;;;;;8.45;6.53;;;41.40;33.70;;;;;;4339947;32;20078;-38
2021/06/26 05:18:18;;;;;;;15.52;6.95;;;41.50;33.20;;;;;;4341412;33;20083;-38
2021/06/26 05:20:45;;;;;;;17.83;7.90;;;41.60;33.00;;;;;;4318758;33;20094;-37
2021/06/26 05:23:17;;;;;;;17.23;6.90;;;41.80;32.80;;;;;;4301174;33;20087;-38
2021/06/26 05:25:44;;;;;;;13.60;6.35;;;42.00;32.50;;;;;;4313772;33;20150;-39
2021/06/26 05:28:10;;;;;;;20.55;7.15;;;42.10;32.50;;;;;;4301538;33;20081;-37
2021/06/26 05:30:37;;;;;;;13.38;6.87;;;42.30;32.10;;;;;;4301413;33;20072;-38
2021/06/26 05:33:04;;;;;;;17.95;6.75;;;42.40;31.30;;;;;;4313683;33;20168;-38
2021/06/26 05:35:30;;;;;;;16.40;6.70;;;42.60;31.00;;;;;;4298847;33;20576;-37
2021/06/26 05:37:57;;;;;;;11.98;7.30;;;42.60;30.50;;;;;;4295489;33;20092;-39
2021/06/26 05:40:24;;;;;;;11.75;6.87;;;42.60;30.70;;;;;;4272467;33;20076;-38
2021/06/26 05:42:50;;;;;;;16.77;6.65;;;42.60;30.20;;;;;;4284502;33;20088;-39
2021/06/26 05:45:17;;;;;;;12.40;6.20;;;42.80;30.10;;;;;;4284541;33;20063;-38
2021/06/26 05:47:43;;;;;;;15.32;7.12;;;42.90;29.90;;;;;;4284439;33;20060;-38
2021/06/26 05:50:10;;;;;;;9.60;6.78;;;42.90;29.90;;;;;;4284473;33;20469;-39
2021/06/26 05:52:51;;;;;;;16.60;6.97;;;43.00;29.80;;;;;;4289992;33;20068;-38
2021/06/26 05:55:17;;;;;;;16.23;8.85;;;42.90;29.80;;;;;;4313154;33;20075;-37
2021/06/26 05:57:44;;;;;;;9.35;8.38;;;42.80;29.90;;;;;;4312961;33;20067;-37
2021/06/26 06:00:12;;;;;;;15.45;6.78;;;42.80;29.90;;;;;;4313161;33;20067;-38
2021/06/26 06:02:39;;;;;;;17.85;7.75;;;42.60;29.90;;;;;;4313491;33;20177;-38
2021/06/26 06:05:10;;;;;;;11.98;7.82;;;42.40;30.00;;;;;;4313604;33;20071;-38
2021/06/26 06:07:36;;;;;;;14.30;7.62;;;42.30;30.10;;;;;;4316497;33;20067;-39
2021/06/26 06:10:07;;;;;;;15.43;6.72;;;42.30;30.50;;;;;;4340941;33;20156;-38
2021/06/26 06:12:34;;;;;;;15.80;6.95;;;42.30;30.60;;;;;;4343134;33;20063;-39
2021/06/26 06:15:01;;;;;;;10.63;6.50;;;42.30;30.50;;;;;;4342310;33;20074;-38
2021/06/26 06:17:28;;;;;;;11.65;6.87;;;42.40;30.50;;;;;;4342666;33;20090;-37
2021/06/26 06:19:55;;;;;;;12.65;6.87;;;42.40;30.30;;;;;;4330072;33;20085;-39
2021/06/26 06:22:21;;;;;;;15.70;8.00;;;42.40;30.20;;;;;;4342427;33;20579;-39
2021/06/26 06:24:47;;;;;;;14.43;7.10;;;42.40;30.40;;;;;;4345022;32;20065;-37
2021/06/26 06:27:14;;;;;;;13.35;8.15;;;42.40;30.30;;;;;;4357230;32;20082;-38
2021/06/26 06:29:40;;;;;;;11.50;7.87;;;42.40;30.30;;;;;;4356967;32;20082;-38
2021/06/26 06:32:07;;;;;;;11.90;7.47;;;42.50;30.10;;;;;;4357047;32;20498;-38
2021/06/26 06:34:34;;;;;;;13.23;7.10;;;42.50;30.30;;;;;;4361550;32;20066;-38
2021/06/26 06:37:00;;;;;;;10.95;7.03;;;42.60;30.00;;;;;;4374692;32;20505;-39
2021/06/26 06:39:27;;;;;;;17.37;7.40;;;42.50;29.80;;;;;;4374505;32;20157;-38
2021/06/26 06:41:54;;;;;;;11.63;7.05;;;42.40;29.90;;;;;;4372989;32;20054;-38
2021/06/26 06:44:20;;;;;;;11.43;7.37;;;42.40;30.00;;;;;;4373101;32;20064;-38
2021/06/26 06:46:46;;;;;;;12.68;7.20;;;42.40;30.00;;;;;;4360234;32;20147;-38
2021/06/26 06:49:13;;;;;;;11.80;6.30;;;42.30;30.20;;;;;;4360204;32;20096;-38
2021/06/26 06:51:39;;;;;;;12.77;7.32;;;42.30;30.20;;;;;;4374591;32;20228;-39
2021/06/26 06:54:06;;;;;;;16.87;7.07;;;42.40;30.40;;;;;;4374746;32;20077;-38
2021/06/26 06:56:32;;;;;;;16.25;6.68;;;42.50;30.20;;;;;;4373953;32;20069;-39
2021/06/26 06:58:59;;;;;;;23.98;7.22;;;42.70;30.10;;;;;;4373936;32;20067;-39
2021/06/26 07:01:26;;;;;;;13.23;7.37;;;42.80;30.10;;;;;;4384881;32;20085;-38
2021/06/26 07:03:53;;;;;;;14.45;7.05;;;42.80;30.10;;;;;;4373955;32;20066;-38
2021/06/26 07:06:19;;;;;;;21.65;7.03;;;42.90;30.10;;;;;;4374089;32;20090;-37
2021/06/26 07:08:46;;;;;;;11.32;6.72;;;43.00;30.00;;;;;;4390765;32;20564;-38
2021/06/26 07:11:12;;;;;;;15.60;7.30;;;43.10;30.00;;;;;;4389359;32;20424;-38
2021/06/26 07:13:39;;;;;;;17.80;7.57;;;43.20;30.10;;;;;;4388964;32;20552;-38
2021/06/26 07:16:05;;;;;;;13.73;7.70;;;43.30;30.00;;;;;;4387072;32;20083;-38
2021/06/26 07:18:32;;;;;;;12.77;7.93;;;43.40;30.00;;;;;;4388784;32;20092;-39
2021/06/26 07:20:58;;;;;;;8.02;6.43;;;43.60;29.70;;;;;;4388582;32;20074;-38
2021/06/26 07:23:24;;;;;;;7.60;6.28;;;43.60;29.40;;;;;;4389306;32;20085;-39
2021/06/26 07:25:51;;;;;;;12.70;7.78;;;43.60;29.30;;;;;;4388590;32;20141;-37
2021/06/26 07:28:17;;;;;;;13.30;6.62;;;43.50;29.50;;;;;;4399575;32;20073;-37
2021/06/26 07:30:44;;;;;;;12.45;6.37;;;43.40;29.70;;;;;;4389072;32;20066;-38
2021/06/26 07:33:10;;;;;;;7.93;7.03;;;43.40;29.30;;;;;;4388530;32;20116;-38
2021/06/26 07:35:37;;;;;;;10.35;6.93;;;43.60;29.50;;;;;;4388709;32;20108;-38
2021/06/26 07:38:03;;;;;;;10.73;6.75;;;43.70;29.50;;;;;;4388649;32;20073;-39
2021/06/26 07:40:30;;;;;;;10.93;6.43;;;43.80;29.30;;;;;;4388265;32;20153;-37
2021/06/26 07:42:56;;;;;;;10.25;7.30;;;44.00;29.40;;;;;;4388414;32;20586;-39
2021/06/26 07:45:23;;;;;;;9.65;6.85;;;44.20;29.80;;;;;;4387164;32;20074;-38
2021/06/26 07:47:49;;;;;;;9.05;7.05;;;44.30;29.10;;;;;;4388770;32;20085;-38
2021/06/26 07:50:16;;;;;;;11.70;7.20;;;44.40;28.80;;;;;;4386890;32;20123;-38
2021/06/26 07:52:42;;;;;;;9.50;6.25;;;44.40;28.60;;;;;;4388944;32;20068;-39
2021/06/26 07:55:09;;;;;;;8.35;6.90;;;44.40;28.50;;;;;;4388259;32;20064;-39
2021/06/26 07:57:36;;;;;;;13.32;7.25;;;44.30;28.50;;;;;;4388035;32;20088;-38
2021/06/26 08:00:07;;;;;;;10.90;6.05;;;44.10;28.40;;;;;;4388171;32;20258;-38
2021/06/26 08:02:34;;;;;;;11.43;7.35;;;43.80;28.90;;;;;;4388212;32;20104;-38
2021/06/26 08:05:00;;;;;;;10.65;7.15;;;43.60;29.40;;;;;;4388060;32;20544;-38
2021/06/26 08:07:26;;;;;;;16.52;6.82;;;43.50;29.70;;;;;;4386814;32;20088;-38
2021/06/26 08:09:53;;;;;;;8.05;7.15;;;43.50;30.00;;;;;;4386674;32;20300;-38
2021/06/26 08:12:19;;;;;;;16.48;6.97;;;43.60;29.20;;;;;;4388364;32;20066;-39
2021/06/26 08:14:46;;;;;;;8.80;8.00;;;43.70;29.30;;;;;;4388244;32;20083;-39
2021/06/26 08:17:13;;;;;;;12.23;6.70;;;43.60;29.40;;;;;;4386518;32;20058;-39
2021/06/26 08:19:40;;;;;;;11.32;6.90;;;43.40;29.60;;;;;;4388210;32;20107;-38
2021/06/26 08:22:06;;;;;;;8.88;6.00;;;43.40;29.50;;;;;;4387903;32;20550;-38
2021/06/26 08:24:33;;;;;;;9.13;6.55;;;43.40;29.30;;;;;;4388308;32;20154;-38
2021/06/26 08:27:01;;;;;;;8.15;6.65;;;43.40;29.00;;;;;;4388180;32;20460;-39
2021/06/26 08:29:28;;;;;;;7.45;6.07;;;43.30;29.50;;;;;;4388296;32;20154;-39
2021/06/26 08:31:54;;;;;;;10.80;6.20;;;43.20;29.70;;;;;;4388066;32;20515;-37
2021/06/26 08:34:21;;;;;;;18.08;6.45;;;43.10;29.80;;;;;;4386472;32;20087;-38
2021/06/26 08:36:50;;;;;;;10.82;6.57;;;43.10;29.90;;;;;;4386050;32;20082;-38
2021/06/26 08:39:20;;;;;;;10.15;6.18;;;43.20;29.40;;;;;;4386426;32;20069;-39
2021/06/26 08:41:49;;;;;;;8.07;6.47;;;43.20;29.00;;;;;;4387818;32;20069;-39
2021/06/26 08:44:19;;;;;;;8.18;5.80;;;43.20;29.10;;;;;;4386367;32;20503;-39
2021/06/26 08:46:49;;;;;;;11.73;6.30;;;43.30;29.30;;;;;;4388192;32;20062;-38
2021/06/26 08:49:16;;;;;;;11.07;6.28;;;43.20;29.70;;;;;;4386290;32;20066;-39
2021/06/26 08:51:43;;;;;;;10.80;6.55;;;43.20;29.40;;;;;;4387954;32;20054;-38
2021/06/26 08:54:14;;;;;;;9.82;6.37;;;43.20;29.90;;;;;;4388923;32;20070;-39
2021/06/26 08:56:43;;;;;;;15.20;5.70;;;43.40;29.50;;;;;;4389286;32;20078;-39
2021/06/26 08:59:09;;;;;;;7.68;5.57;;;43.60;29.40;;;;;;4390875;32;20540;-39
2021/06/26 09:01:37;;;;;;;8.48;5.60;;;43.50;29.00;;;;;;4389027;32;20153;-38
2021/06/26 09:04:10;;;;;;;11.82;6.32;;;43.50;28.50;;;;;;4358115;32;20162;-38
2021/06/26 09:06:51;;;;;;;11.15;6.55;;;43.40;28.70;;;;;;4358307;32;21205;-39
2021/06/26 09:09:35;;;;;;;9.98;6.00;;;43.30;27.60;;;;;;4357756;32;20070;-38
2021/06/26 09:12:07;;;;;;;8.07;6.80;;;43.20;28.20;;;;;;4372645;32;20073;-38
2021/06/26 09:14:35;;;;;;;11.38;6.15;;;43.10;28.90;;;;;;4361142;32;20150;-38
2021/06/26 09:17:01;;;;;;;6.45;5.85;;;43.20;29.10;;;;;;4373079;32;20578;-38
2021/06/26 09:19:30;;;;;;;17.30;6.22;;;43.30;29.30;;;;;;4372925;32;20070;-38
2021/06/26 09:22:10;;;;;;;11.65;5.85;;;43.70;29.10;;;;;;4372754;32;20566;-38
2021/06/26 09:24:45;;;;;;;6.80;6.07;;;44.00;28.10;;;;;;4373166;32;20085;-38
2021/06/26 09:27:16;;;;;;;6.70;6.03;;;44.20;27.60;;;;;;4372705;32;20530;-39
2021/06/26 09:29:52;;;;;;;9.88;6.15;;;44.40;26.80;;;;;;4342318;32;20105;-38
2021/06/26 09:32:29;;;;;;;7.25;5.65;;;44.30;26.90;;;;;;4343120;33;20070;-44
2021/06/26 09:34:57;;;;;;;7.97;5.53;;;44.20;26.80;;;;;;4349854;32;20132;-39
2021/06/26 09:37:29;;;;;;;13.52;5.85;;;44.00;26.80;;;;;;4358047;32;20655;-39
2021/06/26 09:39:57;;;;;;;9.57;7.22;;;43.90;27.10;;;;;;4357667;32;20138;-39
2021/06/26 09:42:28;;;;;;;10.15;5.85;;;43.80;27.30;;;;;;4358196;32;20565;-38
2021/06/26 09:44:58;;;;;;;7.43;5.28;;;43.50;27.80;;;;;;4357974;32;20167;-38
2021/06/26 09:47:44;;;;;;;6.32;5.43;;;43.60;27.80;;;;;;4354789;32;20456;-39
2021/06/26 09:50:20;;;;;;;9.98;5.43;;;43.70;27.20;;;;;;4342826;33;20094;-38
2021/06/26 09:52:52;;;;;;;8.52;4.62;;;43.80;25.90;;;;;;4342954;33;20606;-38
2021/06/26 09:55:27;;;;;;;5.00;4.45;;;43.80;24.80;;;;;;4343007;33;20078;-38
2021/06/26 09:57:56;;;;;;;6.20;4.87;;;43.80;24.60;;;;;;4342940;33;20757;-38
2021/06/26 10:00:25;;;;;;;8.48;4.65;;;43.80;24.40;;;;;;4338953;32;20169;-38
2021/06/26 10:02:52;;;;;;;6.78;3.53;;;43.90;24.50;;;;;;4359935;32;20059;-38
2021/06/26 10:05:19;;;;;;;2.80;1.52;;;44.00;24.50;;;;;;4360125;32;20057;-39
2021/06/26 10:07:47;;;;;;;2.33;2.12;;;44.00;24.10;;;;;;4358788;32;20555;-39
2021/06/26 10:10:16;;;;;;;7.00;3.87;;;43.90;24.00;;;;;;4389552;32;20162;-39
2021/06/26 10:12:42;;;;;;;7.25;3.85;;;43.80;24.10;;;;;;4390338;32;20071;-39
2021/06/26 10:15:11;;;;;;;5.78;4.93;;;43.70;24.30;;;;;;4389537;32;20057;-38
2021/06/26 10:17:37;;;;;;;5.80;4.55;;;43.80;24.20;;;;;;4390111;32;20078;-38
2021/06/26 10:20:09;;;;;;;6.32;4.30;;;43.80;24.30;;;;;;4375427;32;20086;-39
2021/06/26 10:22:44;;;;;;;4.53;4.22;;;44.00;24.20;;;;;;4390050;32;20151;-38
2021/06/26 10:25:11;;;;;;;2.30;1.73;;;44.10;23.50;;;;;;4388481;32;20060;-39
2021/06/26 10:27:38;;;;;;;4.50;4.05;;;44.00;23.70;;;;;;4389724;32;20073;-39
2021/06/26 10:30:21;;;;;;;2.47;2.30;;;43.90;23.50;;;;;;4389979;32;20578;-40
2021/06/26 10:33:01;;;;;;;2.75;1.45;;;43.90;23.70;;;;;;4388401;32;20606;-39
2021/06/26 10:35:32;;;;;;;3.87;3.58;;;43.60;23.60;;;;;;4389531;32;20078;-38
2021/06/26 10:38:17;;;;;;;7.30;3.95;;;43.40;24.00;;;;;;4388186;32;20072;-38
2021/06/26 10:40:49;;;;;;;8.55;4.10;;;43.40;24.30;;;;;;4375305;32;20066;-38
2021/06/26 10:43:28;;;;;;;13.52;4.10;;;43.40;24.20;;;;;;4389495;32;20073;-38
2021/06/26 10:46:18;;;;;;;7.45;4.32;;;43.30;24.30;;;;;;4388081;32;20057;-38
2021/06/26 10:49:07;;;;;;;4.90;4.47;;;43.40;24.40;;;;;;4389340;32;20499;-38
2021/06/26 10:51:36;;;;;;;5.10;4.70;;;43.50;24.30;;;;;;4387786;32;20085;-39
2021/06/26 10:54:28;;;;;;;4.45;4.05;;;43.40;24.00;;;;;;4356671;32;20066;-39
2021/06/26 10:57:03;;;;;;;7.75;3.83;;;43.40;24.30;;;;;;4343538;32;20193;-39
2021/06/26 10:59:30;;;;;;;9.48;4.30;;;43.40;24.20;;;;;;4356988;32;20082;-38
2021/06/26 11:01:58;;;;;;;4.28;3.85;;;43.40;24.10;;;;;;4344080;32;20598;-38
2021/06/26 11:04:26;;;;;;;4.53;4.22;;;43.70;24.00;;;;;;4356752;32;20058;-39
2021/06/26 11:07:07;;;;;;;7.35;4.05;;;43.80;24.00;;;;;;4356738;32;20084;-38
2021/06/26 11:09:41;;;;;;;10.10;4.60;;;44.00;24.00;;;;;;4356817;32;20136;-38
2021/06/26 11:12:11;;;;;;;;;;;44.00;23.70;;;;;;4356951;32;20111;-41
2021/06/26 11:14:58;;;;;;;5.43;4.32;;;43.90;23.90;;;;;;4356499;32;20016;-38
2021/06/26 11:17:54;;;;;;;7.97;5.25;;;43.80;23.90;;;;;;4345874;32;20058;-38
2021/06/26 11:20:20;;;;;;;4.45;3.95;;;43.80;24.20;;;;;;4327050;33;20070;-39
2021/06/26 11:22:59;;;;;;;4.30;3.87;;;43.90;24.00;;;;;;4326636;33;20086;-38
2021/06/26 11:25:29;;;;;;;5.50;3.90;;;44.10;24.00;;;;;;4355471;32;20149;-39
2021/06/26 11:28:09;;;;;;;7.43;4.93;;;44.10;24.00;;;;;;4356208;32;20066;-38
2021/06/26 11:30:36;;;;;;;5.47;4.62;;;44.10;24.10;;;;;;4344352;32;20093;-38
2021/06/26 11:33:02;;;;;;;4.03;3.72;;;44.10;24.10;;;;;;4344142;32;20154;-38
2021/06/26 11:35:36;;;;;;;5.28;4.50;;;44.00;24.60;;;;;;4344123;32;20066;-39
2021/06/26 11:38:03;;;;;;;4.53;4.10;;;44.10;24.10;;;;;;4355835;32;20600;-39
2021/06/26 11:40:30;;;;;;;7.45;5.80;;;44.30;24.00;;;;;;4344056;32;20055;-39
2021/06/26 11:43:02;;;;;;;7.97;4.55;;;44.40;23.80;;;;;;4343797;32;20082;-39
2021/06/26 11:45:30;;;;;;;5.87;4.22;;;44.60;24.10;;;;;;4355960;32;20088;-39
2021/06/26 11:48:19;;;;;;;5.72;4.95;;;44.80;23.80;;;;;;4343897;32;20640;-39
2021/06/26 11:50:50;;;;;;;4.97;4.40;;;44.90;23.60;;;;;;4343618;32;20163;-38
2021/06/26 11:53:18;;;;;;;8.00;3.80;;;44.80;23.30;;;;;;4313406;33;20182;-38
2021/06/26 11:55:50;;;;;;;5.30;4.90;;;44.70;24.00;;;;;;4316784;32;20063;-39
2021/06/26 11:58:18;;;;;;;8.10;5.50;;;44.50;23.60;;;;;;4359103;32;20605;-38
2021/06/26 12:00:44;;;;;;;8.32;4.47;;;44.30;23.70;;;;;;4370780;32;20071;-38
2021/06/26 12:03:20;;;;;;;6.53;4.50;;;44.30;23.90;;;;;;4355365;32;20522;-38
2021/06/26 12:05:46;;;;;;;6.50;4.75;;;44.30;24.20;;;;;;4343408;32;20623;-38
2021/06/26 12:08:18;;;;;;;7.22;4.35;;;44.40;24.20;;;;;;4343100;32;20646;-38
2021/06/26 12:10:46;;;;;;;5.15;4.37;;;44.60;24.00;;;;;;4343905;32;20093;-39
2021/06/26 12:13:13;;;;;;;8.27;4.45;;;44.60;23.90;;;;;;4343474;32;20581;-38
2021/06/26 12:15:43;;;;;;;4.60;4.20;;;44.70;24.10;;;;;;4343058;32;20069;-38
2021/06/26 12:18:10;;;;;;;4.62;4.32;;;44.90;24.60;;;;;;4343397;32;20093;-37
2021/06/26 12:20:37;;;;;;;7.35;4.32;;;44.70;25.00;;;;;;4355593;32;20152;-38
2021/06/26 12:23:11;;;;;;;5.60;4.57;;;44.60;25.50;;;;;;4355675;32;20092;-37
2021/06/26 12:25:45;;;;;;;8.00;5.03;;;44.30;25.80;;;;;;4358127;32;20513;-39
2021/06/26 12:28:11;;;;;;;8.57;4.97;;;44.00;25.50;;;;;;4357841;32;20526;-38
2021/06/26 12:30:39;;;;;;;5.78;5.20;;;43.90;25.80;;;;;;4358283;32;20082;-38
2021/06/26 12:33:11;;;;;;;10.23;4.68;;;43.60;26.00;;;;;;4358004;32;20078;-37
2021/06/26 12:35:38;;;;;;;6.50;5.00;;;43.30;26.10;;;;;;4373115;32;20113;-39
2021/06/26 12:38:05;;;;;;;7.45;5.05;;;43.00;26.50;;;;;;4371325;32;20105;-38
2021/06/26 12:40:42;;;;;;;6.50;5.80;;;42.80;26.70;;;;;;4373003;32;20150;-39
2021/06/26 12:43:12;;;;;;;7.78;5.03;;;42.50;27.20;;;;;;4373221;32;20054;-39
2021/06/26 12:45:51;;;;;;;7.43;5.68;;;42.20;26.90;;;;;;4371569;32;20155;-38